createdAt,value
2019-02-09T00:00:38.698Z,7.20
2019-02-09T00:03:42.565Z,7.26
2019-02-09T00:06:46.443Z,7.18
2019-02-09T00:09:50.410Z,7.19
2019-02-09T00:12:54.213Z,7.27
2019-02-09T00:15:58.144Z,7.21
2019-02-09T00:19:03.670Z,7.21
2019-02-09T00:22:07.667Z,7.28
2019-02-09T00:25:11.660Z,7.26
2019-02-09T00:28:15.547Z,7.24
2019-02-09T00:31:19.506Z,7.28
2019-02-09T00:34:23.322Z,7.32
2019-02-09T00:37:27.110Z,7.25
2019-02-09T00:40:31.080Z,7.22
2019-02-09T00:43:34.882Z,7.40
2019-02-09T00:46:38.742Z,7.26
2019-02-09T00:49:42.560Z,7.18
2019-02-09T00:52:46.453Z,7.17
2019-02-09T00:55:50.340Z,7.26
2019-02-09T00:58:54.123Z,7.30
2019-02-09T01:01:57.914Z,7.30
2019-02-09T01:05:01.702Z,7.28
2019-02-09T01:08:05.881Z,7.23
2019-02-09T01:11:09.841Z,7.33
2019-02-09T01:14:13.709Z,7.34
2019-02-09T01:17:17.517Z,7.31
2019-02-09T01:20:22.860Z,7.36
2019-02-09T01:23:26.760Z,7.34
2019-02-09T01:26:30.641Z,7.39
2019-02-09T01:29:34.575Z,7.39
2019-02-09T01:32:38.634Z,7.37
2019-02-09T01:35:42.506Z,7.28
2019-02-09T01:38:46.305Z,7.27
2019-02-09T01:41:50.296Z,7.34
2019-02-09T01:44:54.089Z,7.40
2019-02-09T01:47:58.153Z,7.41
2019-02-09T01:51:01.992Z,7.40
2019-02-09T01:54:05.938Z,7.48
2019-02-09T01:57:09.773Z,7.41
2019-02-09T02:00:16.118Z,7.44
2019-02-09T02:03:19.920Z,7.45
2019-02-09T02:06:23.782Z,7.49
2019-02-09T02:09:27.661Z,7.54
2019-02-09T02:12:31.543Z,7.54
2019-02-09T02:15:35.590Z,7.53
2019-02-09T02:18:39.456Z,7.52
2019-02-09T02:21:43.326Z,7.48
2019-02-09T02:24:47.226Z,7.50
2019-02-09T02:27:51.036Z,7.51
2019-02-09T02:30:54.837Z,7.53
2019-02-09T02:33:58.634Z,7.53
2019-02-09T02:37:02.500Z,7.53
2019-02-09T02:40:06.766Z,7.53
2019-02-09T02:43:10.620Z,7.56
2019-02-09T02:46:14.502Z,7.48
2019-02-09T02:49:18.435Z,7.52
2019-02-09T02:52:22.278Z,7.56
2019-02-09T02:55:27.247Z,7.62
2019-02-09T02:58:31.119Z,7.56
2019-02-09T03:01:34.924Z,7.55
2019-02-09T03:04:38.792Z,7.61
2019-02-09T03:07:42.711Z,7.57
2019-02-09T03:10:46.589Z,7.56
2019-02-09T03:13:50.392Z,7.71
2019-02-09T03:16:54.256Z,7.75
2019-02-09T03:19:58.140Z,7.69
2019-02-09T03:23:02.036Z,7.71
2019-02-09T03:26:05.923Z,7.70
2019-02-09T03:29:09.876Z,7.80
2019-02-09T03:32:13.755Z,7.72
2019-02-09T03:35:18.226Z,7.69
2019-02-09T03:38:22.048Z,7.71
2019-02-09T03:41:25.837Z,7.70
2019-02-09T03:44:29.722Z,7.79
2019-02-09T03:47:33.501Z,7.81
2019-02-09T03:50:37.389Z,7.82
2019-02-09T03:53:41.284Z,7.80
2019-02-09T03:56:45.194Z,7.80
2019-02-09T03:59:48.964Z,7.88
2019-02-09T04:02:53.139Z,7.83
2019-02-09T04:05:57.089Z,7.79
2019-02-09T04:09:00.888Z,7.77
2019-02-09T04:12:04.852Z,7.79
2019-02-09T04:15:10.131Z,7.78
2019-02-09T04:18:13.998Z,7.86
2019-02-09T04:21:17.836Z,7.83
2019-02-09T04:24:21.623Z,7.82
2019-02-09T04:27:25.435Z,7.83
2019-02-09T04:30:30.918Z,7.89
2019-02-09T04:33:34.785Z,7.86
2019-02-09T04:36:38.569Z,7.79
2019-02-09T04:39:42.357Z,7.89
2019-02-09T04:42:46.164Z,7.85
2019-02-09T04:45:49.987Z,7.83
2019-02-09T04:48:53.778Z,7.76
2019-02-09T04:51:57.574Z,7.84
2019-02-09T04:55:01.472Z,7.79
2019-02-09T04:58:05.408Z,7.84
2019-02-09T05:01:14.158Z,7.83
2019-02-09T05:04:14.941Z,7.78
2019-02-09T05:07:18.876Z,7.77
2019-02-09T05:10:22.830Z,7.88
2019-02-09T05:13:26.630Z,7.82
2019-02-09T05:16:30.442Z,7.81
2019-02-09T05:19:34.269Z,7.78
2019-02-09T05:22:38.144Z,7.76
2019-02-09T05:25:41.972Z,7.75
2019-02-09T05:28:45.791Z,7.77
2019-02-09T05:31:49.634Z,7.65
2019-02-09T05:34:53.454Z,7.59
2019-02-09T05:37:57.319Z,7.63
2019-02-09T05:41:01.215Z,7.65
2019-02-09T05:44:05.282Z,7.61
2019-02-09T05:47:09.159Z,7.60
2019-02-09T05:50:14.342Z,7.59
2019-02-09T05:53:18.123Z,7.44
2019-02-09T05:56:21.929Z,7.29
2019-02-09T05:59:25.702Z,7.33
2019-02-09T06:02:29.504Z,7.26
2019-02-09T06:05:33.352Z,7.27
2019-02-09T06:08:37.168Z,7.18
2019-02-09T06:11:41.119Z,7.19
2019-02-09T06:14:44.948Z,7.17
2019-02-09T06:17:48.980Z,7.05
2019-02-09T06:20:52.778Z,7.08
2019-02-09T06:23:56.665Z,7.06
2019-02-09T06:27:00.537Z,7.08
2019-02-09T06:30:05.601Z,7.12
2019-02-09T06:33:09.407Z,7.10
2019-02-09T06:36:13.202Z,7.14
2019-02-09T06:39:16.982Z,7.14
2019-02-09T06:42:20.977Z,7.20
2019-02-09T06:45:24.975Z,7.30
2019-02-09T06:48:30.051Z,7.14
2019-02-09T06:51:33.886Z,7.05
2019-02-09T06:54:37.665Z,7.08
2019-02-09T06:57:41.480Z,7.00
2019-02-09T07:00:45.322Z,7.03
2019-02-09T07:03:49.150Z,6.99
2019-02-09T07:06:53.003Z,6.99
2019-02-09T07:09:56.875Z,6.97
2019-02-09T07:13:00.744Z,6.89
2019-02-09T07:16:04.921Z,6.93
2019-02-09T07:19:08.721Z,6.93
2019-02-09T07:22:12.545Z,7.00
2019-02-09T07:25:16.613Z,6.89
2019-02-09T07:28:20.508Z,6.77
2019-02-09T07:31:24.327Z,6.81
2019-02-09T07:34:28.217Z,6.90
2019-02-09T07:37:32.141Z,6.93
2019-02-09T07:40:36.097Z,6.77
2019-02-09T07:43:39.894Z,6.78
2019-02-09T07:46:43.677Z,6.76
2019-02-09T07:49:47.505Z,6.75
2019-02-09T07:52:51.475Z,6.81
2019-02-09T07:55:55.431Z,6.84
2019-02-09T07:58:59.226Z,6.80
2019-02-09T08:02:04.619Z,6.84
2019-02-09T08:05:09.380Z,6.91
2019-02-09T08:08:13.337Z,6.95
2019-02-09T08:11:17.142Z,6.95
2019-02-09T08:14:21.006Z,7.01
2019-02-09T08:17:24.815Z,7.06
2019-02-09T08:20:29.389Z,6.97
2019-02-09T08:23:33.185Z,7.04
2019-02-09T08:26:37.038Z,7.13
2019-02-09T08:29:40.846Z,7.12
2019-02-09T08:32:44.631Z,7.15
2019-02-09T08:35:48.529Z,7.12
2019-02-09T08:38:52.436Z,7.22
2019-02-09T08:41:56.210Z,7.24
2019-02-09T08:45:00.161Z,7.33
2019-02-09T08:48:04.368Z,7.40
2019-02-09T08:51:11.152Z,7.42
2019-02-09T08:54:14.939Z,7.39
2019-02-09T08:57:18.743Z,7.36
2019-02-09T09:00:24.918Z,7.36
2019-02-09T09:03:28.753Z,7.20
2019-02-09T09:06:32.543Z,7.24
2019-02-09T09:09:36.422Z,7.26
2019-02-09T09:12:40.276Z,7.30
2019-02-09T09:15:49.596Z,7.15
2019-02-09T09:18:53.394Z,7.22
2019-02-09T09:21:57.185Z,7.21
2019-02-09T09:25:01.024Z,7.31
2019-02-09T09:28:05.280Z,7.25
2019-02-09T09:31:09.193Z,7.24
2019-02-09T09:34:13.160Z,7.30
2019-02-09T09:37:16.968Z,7.40
2019-02-09T09:40:23.617Z,7.40
2019-02-09T09:43:27.499Z,7.40
2019-02-09T09:46:31.377Z,7.41
2019-02-09T09:49:35.201Z,7.40
2019-02-09T09:52:38.985Z,7.41
2019-02-09T09:55:42.924Z,7.55
2019-02-09T09:58:46.899Z,7.63
2019-02-09T10:01:50.700Z,7.74
2019-02-09T10:04:54.564Z,7.79
2019-02-09T10:07:58.418Z,7.72
2019-02-09T10:11:02.234Z,7.79
2019-02-09T10:14:08.954Z,7.81
2019-02-09T10:17:11.728Z,7.73
2019-02-09T10:20:17.729Z,7.75
2019-02-09T10:23:21.540Z,7.87
2019-02-09T10:26:25.366Z,7.91
2019-02-09T10:29:29.236Z,7.95
2019-02-09T10:32:33.203Z,7.93
2019-02-09T10:35:36.986Z,7.96
2019-02-09T10:38:40.818Z,7.91
2019-02-09T10:41:44.698Z,7.88
2019-02-09T10:44:48.809Z,8.02
2019-02-09T10:47:52.766Z,7.83
2019-02-09T10:50:56.675Z,7.86
2019-02-09T10:54:00.476Z,7.85
2019-02-09T10:57:04.550Z,7.82
2019-02-09T11:00:15.806Z,7.71
2019-02-09T11:03:20.278Z,7.70
2019-02-09T11:06:24.144Z,7.76
2019-02-09T11:09:28.096Z,7.77
2019-02-09T11:12:31.956Z,7.76
2019-02-09T11:15:35.934Z,7.78
2019-02-09T11:18:39.806Z,7.75
2019-02-09T11:21:43.696Z,7.80
2019-02-09T11:24:47.542Z,7.71
2019-02-09T11:27:51.492Z,7.68
2019-02-09T11:30:55.837Z,7.63
2019-02-09T11:33:59.641Z,7.67
2019-02-09T11:37:03.621Z,7.70
2019-02-09T11:40:07.940Z,7.60
2019-02-09T11:43:11.820Z,7.54
2019-02-09T11:46:15.699Z,7.56
2019-02-09T11:49:19.518Z,7.46
2019-02-09T11:52:23.369Z,7.30
2019-02-09T11:55:27.182Z,7.26
2019-02-09T11:58:31.322Z,7.21
2019-02-09T12:01:36.114Z,7.16
2019-02-09T12:04:40.021Z,7.16
2019-02-09T12:07:44.002Z,7.18
2019-02-09T12:10:47.953Z,7.11
2019-02-09T12:13:55.436Z,7.20
2019-02-09T12:16:57.362Z,7.31
2019-02-09T12:20:01.162Z,7.31
2019-02-09T12:23:05.215Z,7.23
2019-02-09T12:26:09.196Z,7.23
2019-02-09T12:29:12.973Z,7.00
2019-02-09T12:32:16.893Z,6.86
2019-02-09T12:35:20.979Z,6.71
2019-02-09T12:38:24.860Z,6.69
2019-02-09T12:41:28.740Z,6.60
2019-02-09T12:44:32.658Z,6.51
2019-02-09T12:47:36.550Z,6.39
2019-02-09T12:50:40.533Z,6.42
2019-02-09T12:53:44.385Z,6.38
2019-02-09T12:56:48.205Z,6.38
2019-02-09T12:59:52.053Z,6.33
2019-02-09T13:02:56.584Z,6.26
2019-02-09T13:06:00.524Z,6.30
2019-02-09T13:09:07.787Z,6.31
2019-02-09T13:12:11.734Z,6.30
2019-02-09T13:15:18.396Z,6.27
2019-02-09T13:18:22.297Z,6.24
2019-02-09T13:21:26.116Z,6.19
2019-02-09T13:24:29.975Z,6.19
2019-02-09T13:27:33.858Z,6.22
2019-02-09T13:30:37.954Z,6.14
2019-02-09T13:33:41.786Z,6.20
2019-02-09T13:36:45.782Z,6.18
2019-02-09T13:39:49.613Z,6.13
2019-02-09T13:42:53.410Z,6.11
2019-02-09T13:45:57.212Z,6.02
2019-02-09T13:49:01.038Z,6.07
2019-02-09T13:52:04.929Z,6.11
2019-02-09T13:55:09.150Z,6.17
2019-02-09T13:58:13.137Z,6.23
2019-02-09T14:01:17.012Z,6.20
2019-02-09T14:04:20.940Z,6.17
2019-02-09T14:07:24.730Z,6.31
2019-02-09T14:10:28.851Z,6.29
2019-02-09T14:13:32.651Z,6.35
2019-02-09T14:16:38.795Z,6.42
2019-02-09T14:19:41.998Z,6.26
2019-02-09T14:22:45.826Z,6.35
2019-02-09T14:25:49.699Z,6.42
2019-02-09T14:28:53.512Z,6.44
2019-02-09T14:31:57.487Z,6.40
2019-02-09T14:35:01.294Z,6.49
2019-02-09T14:38:05.358Z,6.43
2019-02-09T14:41:09.228Z,6.52
2019-02-09T14:44:13.136Z,6.53
2019-02-09T14:47:17.007Z,6.61
2019-02-09T14:50:21.381Z,6.68
2019-02-09T14:53:25.206Z,6.66
2019-02-09T14:56:29.023Z,6.71
2019-02-09T14:59:32.897Z,6.73
2019-02-09T15:02:37.244Z,6.74
2019-02-09T15:05:41.340Z,6.68
2019-02-09T15:08:45.212Z,6.83
2019-02-09T15:11:49.071Z,6.80
2019-02-09T15:14:52.865Z,6.75
2019-02-09T15:17:56.702Z,6.76
2019-02-09T15:21:01.767Z,6.78
2019-02-09T15:24:06.950Z,6.83
2019-02-09T15:27:10.855Z,6.84
2019-02-09T15:30:20.397Z,6.89
2019-02-09T15:33:24.285Z,6.94
2019-02-09T15:36:28.129Z,6.95
2019-02-09T15:39:31.992Z,6.97
2019-02-09T15:42:35.790Z,6.91
2019-02-09T15:45:39.693Z,7.00
2019-02-09T15:48:43.567Z,6.90
2019-02-09T15:51:47.381Z,6.88
2019-02-09T15:54:51.195Z,6.82
2019-02-09T15:57:54.998Z,6.83
2019-02-09T16:00:58.887Z,6.87
2019-02-09T16:04:02.674Z,6.82
2019-02-09T16:07:06.668Z,6.87
2019-02-09T16:10:10.860Z,6.80
2019-02-09T16:13:14.821Z,6.84
2019-02-09T16:16:18.728Z,6.84
2019-02-09T16:19:22.527Z,6.82
2019-02-09T16:22:27.188Z,6.76
2019-02-09T16:25:30.989Z,6.79
2019-02-09T16:28:34.811Z,6.80
2019-02-09T16:31:38.685Z,6.82
2019-02-09T16:34:42.573Z,6.77
2019-02-09T16:37:46.511Z,6.72
2019-02-09T16:40:50.427Z,6.73
2019-02-09T16:43:54.221Z,6.73
2019-02-09T16:46:58.013Z,6.67
2019-02-09T16:50:01.834Z,6.68
2019-02-09T16:53:06.202Z,6.69
2019-02-09T16:56:10.112Z,6.75
2019-02-09T16:59:13.883Z,6.77
2019-02-09T17:02:17.774Z,6.84
2019-02-09T17:05:22.516Z,6.80
2019-02-09T17:08:26.328Z,6.85
2019-02-09T17:11:30.188Z,6.90
2019-02-09T17:14:34.005Z,6.87
2019-02-09T17:17:37.849Z,6.91
2019-02-09T17:20:41.646Z,6.96
2019-02-09T17:23:45.452Z,6.98
2019-02-09T17:26:49.328Z,7.02
2019-02-09T17:29:53.167Z,7.02
2019-02-09T17:32:57.095Z,7.07
2019-02-09T17:36:00.885Z,7.02
2019-02-09T17:39:07.363Z,7.07
2019-02-09T17:42:11.230Z,7.05
2019-02-09T17:45:18.390Z,7.11
2019-02-09T17:48:22.369Z,7.12
2019-02-09T17:51:26.229Z,7.06
2019-02-09T17:54:30.118Z,7.09
2019-02-09T17:57:33.932Z,7.16
2019-02-09T18:00:43.181Z,7.20
2019-02-09T18:03:47.112Z,7.18
2019-02-09T18:06:50.974Z,7.15
2019-02-09T18:09:54.802Z,7.15
2019-02-09T18:12:58.726Z,7.16
2019-02-09T18:16:02.703Z,7.14
2019-02-09T18:19:06.671Z,7.14
2019-02-09T18:22:10.644Z,7.20
2019-02-09T18:25:16.387Z,7.19
2019-02-09T18:28:20.328Z,7.24
2019-02-09T18:31:24.255Z,7.19
2019-02-09T18:34:28.045Z,7.25
2019-02-09T18:37:31.843Z,7.32
2019-02-09T18:40:35.783Z,7.27
2019-02-09T18:43:39.594Z,7.29
2019-02-09T18:46:43.453Z,7.32
2019-02-09T18:49:47.255Z,7.27
2019-02-09T18:52:51.208Z,7.36
2019-02-09T18:55:55.022Z,7.34
2019-02-09T18:58:58.827Z,7.27
2019-02-09T19:02:02.776Z,7.26
2019-02-09T19:05:07.406Z,7.34
2019-02-09T19:08:11.352Z,7.32
2019-02-09T19:11:15.212Z,7.33
2019-02-09T19:14:19.139Z,7.29
2019-02-09T19:17:23.292Z,7.29
2019-02-09T19:20:30.136Z,7.32
2019-02-09T19:23:34.025Z,7.32
2019-02-09T19:26:37.978Z,7.38
2019-02-09T19:29:41.865Z,7.33
2019-02-09T19:32:45.759Z,7.32
2019-02-09T19:35:49.743Z,7.25
2019-02-09T19:38:53.557Z,7.26
2019-02-09T19:41:57.365Z,7.21
2019-02-09T19:45:01.237Z,7.17
2019-02-09T19:48:06.103Z,7.22
2019-02-09T19:51:09.909Z,7.23
2019-02-09T19:54:13.716Z,7.19
2019-02-09T19:57:17.490Z,7.20
2019-02-09T20:00:30.102Z,7.20
2019-02-09T20:03:33.902Z,7.20
2019-02-09T20:06:37.756Z,7.28
2019-02-09T20:09:41.536Z,7.28
2019-02-09T20:12:45.434Z,7.26
2019-02-09T20:15:49.408Z,7.15
2019-02-09T20:18:53.204Z,7.12
2019-02-09T20:21:57.101Z,7.00
2019-02-09T20:25:00.899Z,7.00
2019-02-09T20:28:05.275Z,7.02
2019-02-09T20:31:09.138Z,7.03
2019-02-09T20:34:12.963Z,7.10
2019-02-09T20:37:16.816Z,7.09
2019-02-09T20:40:23.697Z,7.15
2019-02-09T20:43:27.580Z,7.04
2019-02-09T20:46:31.394Z,7.07
2019-02-09T20:49:35.222Z,7.00
2019-02-09T20:52:39.032Z,6.93
2019-02-09T20:55:43.174Z,6.85
2019-02-09T20:58:46.981Z,6.73
2019-02-09T21:01:50.810Z,6.61
2019-02-09T21:04:54.607Z,6.84
2019-02-09T21:07:58.505Z,6.74
2019-02-09T21:11:02.403Z,6.66
2019-02-09T21:14:06.205Z,6.70
2019-02-09T21:17:09.987Z,6.79
2019-02-09T21:20:14.903Z,6.73
2019-02-09T21:23:18.738Z,6.65
2019-02-09T21:26:22.580Z,6.64
2019-02-09T21:29:26.387Z,6.57
2019-02-09T21:32:30.195Z,6.60
2019-02-09T21:35:34.178Z,6.58
2019-02-09T21:38:37.976Z,6.50
2019-02-09T21:41:41.788Z,6.48
2019-02-09T21:44:45.617Z,6.51
2019-02-09T21:47:50.401Z,6.54
2019-02-09T21:50:54.277Z,6.54
2019-02-09T21:53:58.083Z,6.48
2019-02-09T21:57:01.899Z,6.56
2019-02-09T22:00:10.149Z,6.47
2019-02-09T22:03:14.455Z,6.49
2019-02-09T22:06:18.401Z,6.43
2019-02-09T22:09:22.188Z,6.51
2019-02-09T22:12:25.989Z,6.49
2019-02-09T22:15:38.322Z,6.49
2019-02-09T22:18:36.273Z,6.51
2019-02-09T22:21:40.557Z,6.42
2019-02-09T22:24:44.536Z,6.51
2019-02-09T22:27:48.914Z,6.50
2019-02-09T22:30:52.789Z,6.54
2019-02-09T22:33:56.634Z,6.46
2019-02-09T22:37:00.396Z,6.49
2019-02-09T22:40:05.966Z,6.52
2019-02-09T22:43:10.226Z,6.47
2019-02-09T22:46:14.028Z,6.42
2019-02-09T22:49:17.853Z,6.33
2019-02-09T22:52:21.784Z,6.29
2019-02-09T22:55:26.060Z,6.40
2019-02-09T22:58:29.855Z,6.38
2019-02-09T23:01:46.319Z,6.39
2019-02-09T23:04:57.931Z,6.44
2019-02-09T23:08:01.710Z,6.36
2019-02-09T23:11:05.673Z,6.40
2019-02-09T23:14:09.551Z,6.35
2019-02-09T23:17:13.351Z,6.40
2019-02-09T23:20:17.159Z,6.41
2019-02-09T23:23:20.969Z,6.41
2019-02-09T23:26:24.771Z,6.38
2019-02-09T23:29:28.679Z,6.35
2019-02-09T23:32:32.492Z,6.42
2019-02-09T23:35:36.318Z,6.39
2019-02-09T23:38:40.126Z,6.33
2019-02-09T23:41:43.926Z,6.38
2019-02-09T23:44:47.735Z,6.26
2019-02-09T23:47:51.649Z,6.38
2019-02-09T23:50:55.436Z,6.36
2019-02-09T23:53:59.248Z,6.34
2019-02-09T23:57:03.036Z,6.53
